createdAt,value
2019-03-21T00:00:03.133Z,89.3
2019-03-21T00:01:03.553Z,90
2019-03-21T00:02:03.633Z,91.4
2019-03-21T00:03:03.507Z,90.3
2019-03-21T00:04:03.695Z,91.7
2019-03-21T00:05:03.081Z,93.5
2019-03-21T00:06:03.903Z,93.3
2019-03-21T00:07:03.902Z,94.7
2019-03-21T00:08:03.215Z,97
2019-03-21T00:09:03.106Z,96.1
2019-03-21T00:10:03.282Z,99.6
2019-03-21T00:11:03.121Z,100.5
2019-03-21T00:12:03.657Z,100.1
2019-03-21T00:13:03.155Z,99.4
2019-03-21T00:14:07.627Z,100.5
2019-03-21T00:15:03.700Z,101.9
2019-03-21T00:16:03.807Z,101.5
2019-03-21T00:17:03.162Z,103.1
2019-03-21T00:18:03.040Z,102.6
2019-03-21T00:19:03.472Z,101.9
2019-03-21T00:20:03.548Z,100.5
2019-03-21T00:21:03.418Z,99.4
2019-03-21T00:22:03.548Z,99.8
2019-03-21T00:23:03.562Z,99.1
2019-03-21T00:24:03.074Z,99.1
2019-03-21T00:25:02.951Z,99.4
2019-03-21T00:26:03.361Z,98.2
2019-03-21T00:27:03.390Z,98.4
2019-03-21T00:28:03.119Z,96.8
2019-03-21T00:29:03.667Z,94.7
2019-03-21T00:30:03.737Z,95.6
2019-03-21T00:31:03.409Z,94.7
2019-03-21T00:32:03.667Z,93.1
2019-03-21T00:33:03.741Z,94
2019-03-21T00:34:03.333Z,91.9
2019-03-21T00:35:03.295Z,92.4
2019-03-21T00:36:03.604Z,92.6
2019-03-21T00:37:02.987Z,92.8
2019-03-21T00:38:03.135Z,92.8
2019-03-21T00:39:03.135Z,92.8
2019-03-21T00:40:03.400Z,94.7
2019-03-21T00:41:03.454Z,91.9
2019-03-21T00:42:03.463Z,91.4
2019-03-21T00:43:02.704Z,92.1
2019-03-21T00:44:02.817Z,91.9
2019-03-21T00:45:03.151Z,93.8
2019-03-21T00:46:03.412Z,92.4
2019-03-21T00:47:03.565Z,91.7
2019-03-21T00:48:03.098Z,90.5
2019-03-21T00:49:03.113Z,90
2019-03-21T00:50:03.115Z,90.7
2019-03-21T00:51:03.346Z,88.2
2019-03-21T00:52:03.376Z,88.6
2019-03-21T00:53:03.169Z,88.4
2019-03-21T00:54:03.296Z,87.7
2019-03-21T00:55:03.430Z,88.9
2019-03-21T00:56:03.172Z,88.6
2019-03-21T00:57:03.667Z,89.3
2019-03-21T00:58:03.483Z,88.2
2019-03-21T00:59:03.251Z,87.7
2019-03-21T01:00:03.804Z,87.2
2019-03-21T01:01:03.171Z,87
2019-03-21T01:02:03.632Z,86.5
2019-03-21T01:03:04.177Z,84
2019-03-21T01:04:03.455Z,84.2
2019-03-21T01:05:03.460Z,84.2
2019-03-21T01:06:03.362Z,81.4
2019-03-21T01:07:03.596Z,82.1
2019-03-21T01:08:03.317Z,80.7
2019-03-21T01:09:03.183Z,78.8
2019-03-21T01:10:03.593Z,78.8
2019-03-21T01:11:03.755Z,77.9
2019-03-21T01:12:04.053Z,79.3
2019-03-21T01:13:03.552Z,77.4
2019-03-21T01:14:03.778Z,78.4
2019-03-21T01:15:04.046Z,78.1
2019-03-21T01:16:03.570Z,79.1
2019-03-21T01:17:02.994Z,79.1
2019-03-21T01:18:03.355Z,79.3
2019-03-21T01:19:03.504Z,79.8
2019-03-21T01:20:03.679Z,79.8
2019-03-21T01:21:03.657Z,81.2
2019-03-21T01:22:03.372Z,81.4
2019-03-21T01:23:03.418Z,80
2019-03-21T01:24:03.724Z,80.5
2019-03-21T01:25:03.344Z,81.6
2019-03-21T01:26:03.491Z,80.9
2019-03-21T01:27:03.456Z,83.5
2019-03-21T01:28:03.747Z,83.3
2019-03-21T01:29:03.403Z,82.3
2019-03-21T01:30:03.122Z,85.1
2019-03-21T01:31:03.144Z,82.1
2019-03-21T01:32:03.399Z,83.7
2019-03-21T01:33:03.286Z,83.7
2019-03-21T01:34:03.487Z,84
2019-03-21T01:35:03.136Z,85.6
2019-03-21T01:36:03.350Z,84.7
2019-03-21T01:37:03.040Z,84.9
2019-03-21T01:38:03.137Z,82.6
2019-03-21T01:39:03.313Z,83.3
2019-03-21T01:40:03.347Z,81.9
2019-03-21T01:41:03.537Z,82.3
2019-03-21T01:42:03.063Z,82.3
2019-03-21T01:43:03.366Z,81.9
2019-03-21T01:44:03.162Z,81.9
2019-03-21T01:45:03.384Z,83
2019-03-21T01:46:03.326Z,81.9
2019-03-21T01:47:03.148Z,83.7
2019-03-21T01:48:02.993Z,84
2019-03-21T01:49:02.823Z,84
2019-03-21T01:50:03.005Z,86.5
2019-03-21T01:51:03.403Z,86.8
2019-03-21T01:52:03.175Z,87.9
2019-03-21T01:53:03.815Z,87
2019-03-21T01:54:03.639Z,86.5
2019-03-21T01:55:03.778Z,88.4
2019-03-21T01:56:03.087Z,86.1
2019-03-21T01:57:02.916Z,88.6
2019-03-21T01:58:03.005Z,86.1
2019-03-21T01:59:02.822Z,88.2
2019-03-21T02:00:03.772Z,87.7
2019-03-21T02:01:03.661Z,87.9
2019-03-21T02:02:03.658Z,87.7
2019-03-21T02:03:03.009Z,89.1
2019-03-21T02:04:03.672Z,89.3
2019-03-21T02:05:03.134Z,89.1
2019-03-21T02:06:03.852Z,89.6
2019-03-21T02:07:02.736Z,89.8
2019-03-21T02:08:03.103Z,88.2
2019-03-21T02:09:03.250Z,88.4
2019-03-21T02:10:03.317Z,88.2
2019-03-21T02:11:03.184Z,88.2
2019-03-21T02:12:03.284Z,89.1
2019-03-21T02:13:03.832Z,88.6
2019-03-21T02:14:02.990Z,88.4
2019-03-21T02:15:03.693Z,88.2
2019-03-21T02:16:03.165Z,89.1
2019-03-21T02:17:03.588Z,89.3
2019-03-21T02:18:03.038Z,89.6
2019-03-21T02:19:03.831Z,89.6
2019-03-21T02:20:03.042Z,91.2
2019-03-21T02:21:03.146Z,91.2
2019-03-21T02:22:03.687Z,90.3
2019-03-21T02:23:03.788Z,90.3
2019-03-21T02:24:03.237Z,89.8
2019-03-21T02:25:03.191Z,90.5
2019-03-21T02:26:03.032Z,88.9
2019-03-21T02:27:03.348Z,88.9
2019-03-21T02:28:03.428Z,88.6
2019-03-21T02:29:03.396Z,90.3
2019-03-21T02:30:03.419Z,90.5
2019-03-21T02:31:03.237Z,89.6
2019-03-21T02:32:03.928Z,89.8
2019-03-21T02:33:02.911Z,88.9
2019-03-21T02:34:03.897Z,88.6
2019-03-21T02:35:03.089Z,89.6
2019-03-21T02:36:03.630Z,88.4
2019-03-21T02:37:03.056Z,89.8
2019-03-21T02:38:03.109Z,90
2019-03-21T02:39:03.366Z,90.5
2019-03-21T02:40:03.453Z,90.5
2019-03-21T02:41:03.226Z,91.4
2019-03-21T02:42:03.175Z,89.1
2019-03-21T02:43:03.214Z,89.3
2019-03-21T02:44:03.884Z,89.3
2019-03-21T02:45:10.252Z,90
2019-03-21T02:46:03.336Z,90.5
2019-03-21T02:47:03.103Z,90
2019-03-21T02:48:03.198Z,89.1
2019-03-21T02:49:03.471Z,89.8
2019-03-21T02:50:03.879Z,88.9
2019-03-21T02:51:03.480Z,90
2019-03-21T02:52:03.455Z,89.1
2019-03-21T02:53:03.189Z,88.4
2019-03-21T02:54:03.333Z,88.6
2019-03-21T02:55:03.795Z,88.4
2019-03-21T02:56:03.437Z,88.4
2019-03-21T02:57:03.062Z,89.6
2019-03-21T02:58:03.429Z,90.7
2019-03-21T02:59:03.199Z,90.5
2019-03-21T03:00:03.453Z,91.4
2019-03-21T03:01:03.190Z,91.2
2019-03-21T03:02:03.851Z,91.2
2019-03-21T03:03:03.479Z,94.2
2019-03-21T03:04:03.995Z,90.7
2019-03-21T03:05:03.252Z,92.6
2019-03-21T03:06:03.246Z,92.6
2019-03-21T03:07:03.726Z,94
2019-03-21T03:08:03.390Z,94.7
2019-03-21T03:09:03.820Z,95.4
2019-03-21T03:10:03.453Z,97.3
2019-03-21T03:11:02.946Z,98.4
2019-03-21T03:12:03.530Z,96.6
2019-03-21T03:13:02.799Z,96.6
2019-03-21T03:14:05.062Z,98
2019-03-21T03:15:03.149Z,95.9
2019-03-21T03:16:02.978Z,96.3
2019-03-21T03:17:03.921Z,96.8
2019-03-21T03:18:03.070Z,95.2
2019-03-21T03:19:03.291Z,94.9
2019-03-21T03:20:03.156Z,96.1
2019-03-21T03:21:03.820Z,94.9
2019-03-21T03:22:03.532Z,96.3
2019-03-21T03:23:02.965Z,96.6
2019-03-21T03:24:03.853Z,98.2
2019-03-21T03:25:03.179Z,98.2
2019-03-21T03:26:03.329Z,97.3
2019-03-21T03:27:03.246Z,98.2
2019-03-21T03:28:03.663Z,97
2019-03-21T03:29:03.970Z,97.5
2019-03-21T03:30:04.029Z,97.7
2019-03-21T03:31:03.305Z,96.8
2019-03-21T03:32:03.685Z,97.5
2019-03-21T03:33:03.277Z,97.3
2019-03-21T03:34:03.966Z,96.6
2019-03-21T03:35:03.697Z,96.1
2019-03-21T03:36:03.304Z,94.9
2019-03-21T03:37:03.298Z,96.6
2019-03-21T03:38:03.141Z,95.4
2019-03-21T03:39:03.367Z,97
2019-03-21T03:40:03.462Z,97.3
2019-03-21T03:41:03.350Z,97.7
2019-03-21T03:42:03.229Z,95.6
2019-03-21T03:43:03.211Z,99.4
2019-03-21T03:44:03.337Z,97
2019-03-21T03:45:03.417Z,99.1
2019-03-21T03:46:03.296Z,97.3
2019-03-21T03:47:03.473Z,96.6
2019-03-21T03:48:03.678Z,98.2
2019-03-21T03:49:03.773Z,96.3
2019-03-21T03:50:03.031Z,95.9
2019-03-21T03:51:03.816Z,95.4
2019-03-21T03:52:03.803Z,94.7
2019-03-21T03:53:03.142Z,93.3
2019-03-21T03:54:03.232Z,95.2
2019-03-21T03:55:03.247Z,93.8
2019-03-21T03:56:03.710Z,95.6
2019-03-21T03:57:03.386Z,95.6
2019-03-21T03:58:03.354Z,96.3
2019-03-21T03:59:03.051Z,94
2019-03-21T04:00:03.666Z,94.5
2019-03-21T04:01:03.136Z,94
2019-03-21T04:02:03.648Z,94.5
2019-03-21T04:03:03.426Z,96.1
2019-03-21T04:04:03.563Z,92.4
2019-03-21T04:05:03.669Z,92.8
2019-03-21T04:06:03.581Z,92.8
2019-03-21T04:07:03.036Z,91.7
2019-03-21T04:08:03.101Z,91.7
2019-03-21T04:09:02.898Z,90.3
2019-03-21T04:10:03.906Z,91.2
2019-03-21T04:11:02.687Z,89.1
2019-03-21T04:12:03.844Z,89.1
2019-03-21T04:13:03.671Z,89.8
2019-03-21T04:14:03.784Z,91.4
2019-03-21T04:15:03.152Z,91
2019-03-21T04:16:03.040Z,89.6
2019-03-21T04:17:03.810Z,91.9
2019-03-21T04:18:03.438Z,89.1
2019-03-21T04:19:03.458Z,89.1
2019-03-21T04:20:03.833Z,91.4
2019-03-21T04:21:03.487Z,92.6
2019-03-21T04:22:03.386Z,92.1
2019-03-21T04:23:03.632Z,91.7
2019-03-21T04:24:03.108Z,91
2019-03-21T04:25:02.854Z,91.2
2019-03-21T04:26:03.203Z,91.4
2019-03-21T04:27:03.476Z,92.8
2019-03-21T04:28:03.743Z,91.2
2019-03-21T04:29:03.098Z,91.2
2019-03-21T04:30:03.697Z,93.1
2019-03-21T04:31:03.231Z,91.2
2019-03-21T04:32:03.646Z,92.8
2019-03-21T04:33:03.645Z,91.9
2019-03-21T04:34:03.736Z,92.6
2019-03-21T04:35:03.569Z,92.8
2019-03-21T04:36:03.152Z,93.8
2019-03-21T04:37:03.359Z,94.7
2019-03-21T04:38:03.195Z,94
2019-03-21T04:39:03.850Z,94.2
2019-03-21T04:40:03.627Z,94.2
2019-03-21T04:41:03.624Z,94.5
2019-03-21T04:42:03.019Z,95.2
2019-03-21T04:43:03.081Z,93.1
2019-03-21T04:44:03.448Z,92.6
2019-03-21T04:45:03.066Z,92.6
2019-03-21T04:46:04.238Z,93.3
2019-03-21T04:47:02.964Z,92.8
2019-03-21T04:48:03.146Z,93.3
2019-03-21T04:49:02.973Z,93.5
2019-03-21T04:50:03.874Z,92.6
2019-03-21T04:51:03.355Z,94.7
2019-03-21T04:52:03.138Z,94.5
2019-03-21T04:53:03.669Z,95.9
2019-03-21T04:54:03.337Z,96.6
2019-03-21T04:55:03.791Z,95.4
2019-03-21T04:56:03.254Z,97
2019-03-21T04:57:03.459Z,96.6
2019-03-21T04:58:03.439Z,96.6
2019-03-21T04:59:03.147Z,95.9
2019-03-21T05:00:04.309Z,96.6
2019-03-21T05:01:02.991Z,98.2
2019-03-21T05:02:02.938Z,98.4
2019-03-21T05:03:03.227Z,97
2019-03-21T05:04:03.260Z,97
2019-03-21T05:05:03.088Z,97
2019-03-21T05:06:03.132Z,97.3
2019-03-21T05:07:03.424Z,97.3
2019-03-21T05:08:03.636Z,97.5
2019-03-21T05:09:03.691Z,98.2
2019-03-21T05:10:03.751Z,98
2019-03-21T05:11:03.699Z,97.3
2019-03-21T05:12:04.377Z,98.2
2019-03-21T05:13:03.242Z,96.6
2019-03-21T05:14:03.527Z,97
2019-03-21T05:15:03.709Z,96.1
2019-03-21T05:16:15.406Z,96.8
2019-03-21T05:17:03.303Z,96.3
2019-03-21T05:18:03.241Z,96.3
2019-03-21T05:19:03.230Z,96.6
2019-03-21T05:20:03.331Z,97.7
2019-03-21T05:21:03.499Z,96.6
2019-03-21T05:22:03.754Z,96.6
2019-03-21T05:23:03.432Z,95.4
2019-03-21T05:24:03.372Z,95.6
2019-03-21T05:25:03.990Z,95.4
2019-03-21T05:26:04.474Z,96.1
2019-03-21T05:27:03.987Z,95.2
2019-03-21T05:28:03.297Z,94.2
2019-03-21T05:29:03.717Z,93.8
2019-03-21T05:30:03.782Z,94.5
2019-03-21T05:31:03.332Z,92.8
2019-03-21T05:32:04.152Z,95.4
2019-03-21T05:33:04.025Z,95.9
2019-03-21T05:34:03.050Z,96.1
2019-03-21T05:35:03.054Z,97
2019-03-21T05:36:02.870Z,96.1
2019-03-21T05:37:03.045Z,97.5
2019-03-21T05:38:03.209Z,96.1
2019-03-21T05:39:03.223Z,96.3
2019-03-21T05:40:03.391Z,97
2019-03-21T05:41:03.854Z,97
2019-03-21T05:42:03.774Z,96.3
2019-03-21T05:43:02.991Z,97.3
2019-03-21T05:44:03.068Z,96.6
2019-03-21T05:45:03.346Z,96.3
2019-03-21T05:46:03.180Z,96.1
2019-03-21T05:47:03.582Z,95.4
2019-03-21T05:48:03.381Z,95.2
2019-03-21T05:49:03.625Z,96.6
2019-03-21T05:50:03.865Z,95.4
2019-03-21T05:51:03.074Z,95.2
2019-03-21T05:52:03.259Z,95.2
2019-03-21T05:53:03.408Z,95.4
2019-03-21T05:54:03.111Z,93.5
2019-03-21T05:55:03.782Z,92.8
2019-03-21T05:56:03.728Z,90.5
2019-03-21T05:57:03.646Z,90.5
2019-03-21T05:58:03.260Z,90.3
2019-03-21T05:59:03.296Z,89.6
2019-03-21T06:00:02.922Z,90.3
2019-03-21T06:01:03.562Z,88.6
2019-03-21T06:02:02.983Z,89.3
2019-03-21T06:03:03.067Z,89.1
2019-03-21T06:04:03.600Z,89.3
2019-03-21T06:05:03.484Z,90
2019-03-21T06:06:02.990Z,90
2019-03-21T06:07:03.735Z,91
2019-03-21T06:08:03.358Z,89.8
2019-03-21T06:09:03.086Z,91
2019-03-21T06:10:02.810Z,91.2
2019-03-21T06:11:03.968Z,90
2019-03-21T06:12:03.145Z,91
2019-03-21T06:13:03.613Z,91
2019-03-21T06:14:03.108Z,90.3
2019-03-21T06:15:03.904Z,90.5
2019-03-21T06:16:03.837Z,91.2
2019-03-21T06:17:03.948Z,90.5
2019-03-21T06:18:03.347Z,90.7
2019-03-21T06:19:03.650Z,89.3
2019-03-21T06:20:04.610Z,89.6
2019-03-21T06:21:03.495Z,89.6
2019-03-21T06:22:03.239Z,88.4
2019-03-21T06:23:03.616Z,89.3
2019-03-21T06:24:03.330Z,90
2019-03-21T06:25:03.593Z,90
2019-03-21T06:26:03.166Z,90
2019-03-21T06:27:15.270Z,89.1
2019-03-21T06:28:03.558Z,90
2019-03-21T06:29:02.919Z,89.3
2019-03-21T06:30:03.158Z,89.1
2019-03-21T06:31:03.516Z,89.8
2019-03-21T06:32:03.553Z,91.2
2019-03-21T06:33:03.256Z,90.3
2019-03-21T06:34:03.083Z,92.1
2019-03-21T06:35:03.433Z,90.7
2019-03-21T06:36:03.671Z,90.3
2019-03-21T06:37:03.117Z,92.6
2019-03-21T06:38:03.980Z,89.8
2019-03-21T06:39:03.383Z,90.7
2019-03-21T06:40:02.985Z,90.3
2019-03-21T06:41:03.248Z,90
2019-03-21T06:42:03.017Z,89.6
2019-03-21T06:43:02.948Z,90.3
2019-03-21T06:44:02.938Z,88.4
2019-03-21T06:45:03.054Z,89.8
2019-03-21T06:46:02.801Z,89.3
2019-03-21T06:47:03.059Z,90.5
2019-03-21T06:48:03.087Z,89.6
2019-03-21T06:49:03.907Z,92.4
2019-03-21T06:50:03.994Z,90
2019-03-21T06:51:03.859Z,91.2
2019-03-21T06:52:02.978Z,91.7
2019-03-21T06:53:03.670Z,92.1
2019-03-21T06:54:03.518Z,92.6
2019-03-21T06:55:03.739Z,93.3
2019-03-21T06:56:04.146Z,92.6
2019-03-21T06:57:03.451Z,93.5
2019-03-21T06:58:03.807Z,94.5
2019-03-21T06:59:03.760Z,93.5
2019-03-21T07:00:03.984Z,95.9
2019-03-21T07:01:03.646Z,93.8
2019-03-21T07:02:03.660Z,94.7
2019-03-21T07:03:03.147Z,94.7
2019-03-21T07:04:07.908Z,93.5
2019-03-21T07:05:03.522Z,92.8
2019-03-21T07:06:03.297Z,93.5
2019-03-21T07:07:08.938Z,94
2019-03-21T07:08:03.414Z,94.2
2019-03-21T07:09:03.157Z,93.1
2019-03-21T07:10:03.256Z,93.8
2019-03-21T07:11:03.202Z,91.9
2019-03-21T07:12:03.921Z,94
2019-03-21T07:13:03.112Z,93.1
2019-03-21T07:14:03.270Z,94.2
2019-03-21T07:15:04.800Z,92.1
2019-03-21T07:16:03.419Z,92.4
2019-03-21T07:17:03.271Z,90.7
2019-03-21T07:18:03.363Z,90.5
2019-03-21T07:19:03.616Z,91
2019-03-21T07:20:03.464Z,90.7
2019-03-21T07:21:03.452Z,91.2
2019-03-21T07:22:03.548Z,89.6
2019-03-21T07:23:03.303Z,91
2019-03-21T07:24:03.395Z,91.2
2019-03-21T07:25:03.229Z,91.2
2019-03-21T07:26:03.680Z,91.9
2019-03-21T07:27:03.332Z,91.4
2019-03-21T07:28:03.169Z,91.4
2019-03-21T07:29:03.425Z,91
2019-03-21T07:30:03.655Z,90
2019-03-21T07:31:03.424Z,91.2
2019-03-21T07:32:03.560Z,88.9
2019-03-21T07:33:03.334Z,88.6
2019-03-21T07:34:03.151Z,86.8
2019-03-21T07:35:03.317Z,87
2019-03-21T07:36:03.135Z,85.1
2019-03-21T07:37:03.226Z,87
2019-03-21T07:38:03.071Z,86.3
2019-03-21T07:39:03.288Z,86.1
2019-03-21T07:40:03.145Z,87.5
2019-03-21T07:41:03.172Z,86.3
2019-03-21T07:42:03.150Z,88.9
2019-03-21T07:43:03.257Z,87.7
2019-03-21T07:44:03.024Z,89.3
2019-03-21T07:45:03.232Z,89.8
2019-03-21T07:46:03.363Z,90
2019-03-21T07:47:13.754Z,90.7
2019-03-21T07:48:05.635Z,90
2019-03-21T07:49:02.818Z,89.6
2019-03-21T07:50:03.005Z,90.7
2019-03-21T07:51:03.926Z,89.1
2019-03-21T07:52:03.912Z,88.4
2019-03-21T07:53:03.749Z,87.5
2019-03-21T07:54:02.940Z,88.2
2019-03-21T07:55:03.994Z,88.4
2019-03-21T07:56:04.434Z,87.7
2019-03-21T07:57:02.998Z,89.3
2019-03-21T07:58:03.821Z,87.7
2019-03-21T07:59:03.609Z,88.2
2019-03-21T08:00:03.744Z,88.9
2019-03-21T08:01:03.663Z,89.1
2019-03-21T08:02:03.601Z,89.6
2019-03-21T08:03:03.270Z,89.8
2019-03-21T08:04:03.710Z,89.6
2019-03-21T08:05:03.735Z,89.6
2019-03-21T08:06:03.739Z,90
2019-03-21T08:07:03.526Z,89.8
2019-03-21T08:08:03.622Z,91
2019-03-21T08:09:03.538Z,89.3
2019-03-21T08:10:03.710Z,90.3
2019-03-21T08:11:03.661Z,89.3
2019-03-21T08:12:03.648Z,91
2019-03-21T08:13:03.821Z,88.9
2019-03-21T08:14:03.582Z,89.8
2019-03-21T08:15:03.538Z,90
2019-03-21T08:16:03.446Z,89.6
2019-03-21T08:17:03.660Z,91.4
2019-03-21T08:18:03.526Z,90.3
2019-03-21T08:19:03.280Z,91.2
2019-03-21T08:20:03.509Z,92.4
2019-03-21T08:21:03.568Z,92.1
2019-03-21T08:22:03.525Z,92.1
2019-03-21T08:23:03.197Z,91.7
2019-03-21T08:24:03.548Z,91.7
2019-03-21T08:25:03.331Z,90.5
2019-03-21T08:26:03.353Z,91.2
2019-03-21T08:27:03.409Z,91.4
2019-03-21T08:28:03.244Z,91.9
2019-03-21T08:29:03.289Z,91.9
2019-03-21T08:30:03.503Z,92.4
2019-03-21T08:31:03.301Z,92.4
2019-03-21T08:32:03.269Z,91.9
2019-03-21T08:33:03.555Z,94
2019-03-21T08:34:03.223Z,94
2019-03-21T08:35:03.339Z,94.9
2019-03-21T08:36:03.256Z,96.1
2019-03-21T08:37:03.507Z,94
2019-03-21T08:38:03.183Z,97
2019-03-21T08:39:03.578Z,95.9
2019-03-21T08:40:03.423Z,94.7
2019-03-21T08:41:03.552Z,94.5
2019-03-21T08:42:03.360Z,94.5
2019-03-21T08:43:03.390Z,93.8
2019-03-21T08:44:03.378Z,93.5
2019-03-21T08:45:03.198Z,92.4
2019-03-21T08:46:03.396Z,92.6
2019-03-21T08:47:03.157Z,90
2019-03-21T08:48:03.284Z,90
2019-03-21T08:49:03.027Z,90
2019-03-21T08:50:03.148Z,90.5
2019-03-21T08:51:09.178Z,90.7
2019-03-21T08:52:03.240Z,89.6
2019-03-21T08:53:03.064Z,92.4
2019-03-21T08:54:03.062Z,90.3
2019-03-21T08:55:03.140Z,92.6
2019-03-21T08:56:02.957Z,90.5
2019-03-21T08:57:03.780Z,91.2
2019-03-21T08:58:02.949Z,91.2
2019-03-21T08:59:03.047Z,91.7
2019-03-21T09:00:03.147Z,91.4
2019-03-21T09:01:03.983Z,91.9
2019-03-21T09:02:04.000Z,91.7
2019-03-21T09:03:03.101Z,91.2
2019-03-21T09:04:03.061Z,93.1
2019-03-21T09:05:03.334Z,91.4
2019-03-21T09:06:03.070Z,92.8
2019-03-21T09:07:03.800Z,91.9
2019-03-21T09:08:03.777Z,92.4
2019-03-21T09:09:03.078Z,91
2019-03-21T09:10:03.757Z,92.1
2019-03-21T09:11:04.001Z,90.5
2019-03-21T09:12:03.517Z,92.4
2019-03-21T09:13:03.443Z,92.4
2019-03-21T09:14:03.649Z,91.4
2019-03-21T09:15:03.778Z,93.5
2019-03-21T09:16:03.627Z,93.3
2019-03-21T09:17:03.452Z,92.6
2019-03-21T09:18:03.647Z,93.3
2019-03-21T09:19:03.682Z,91.7
2019-03-21T09:20:03.498Z,93.1
2019-03-21T09:21:03.308Z,93.5
2019-03-21T09:22:03.572Z,92.4
2019-03-21T09:23:03.483Z,94.2
2019-03-21T09:24:03.664Z,93.1
2019-03-21T09:25:05.154Z,94.2
2019-03-21T09:26:03.397Z,94.2
2019-03-21T09:27:03.383Z,94.2
2019-03-21T09:28:03.385Z,96.1
2019-03-21T09:29:03.309Z,95.2
2019-03-21T09:30:03.410Z,95.2
2019-03-21T09:31:03.364Z,96.8
2019-03-21T09:32:03.002Z,95.4
2019-03-21T09:33:03.286Z,97.5
2019-03-21T09:34:03.250Z,94.9
2019-03-21T09:35:03.292Z,95.2
2019-03-21T09:36:03.278Z,94.9
2019-03-21T09:37:04.487Z,94.2
2019-03-21T09:38:02.960Z,95.9
2019-03-21T09:39:03.150Z,94
2019-03-21T09:40:02.846Z,96.1
2019-03-21T09:41:02.977Z,94.7
2019-03-21T09:42:02.925Z,96.3
2019-03-21T09:43:03.628Z,96.6
2019-03-21T09:44:02.971Z,96.8
2019-03-21T09:45:03.671Z,98
2019-03-21T09:46:03.107Z,98.9
2019-03-21T09:47:03.857Z,98.2
2019-03-21T09:48:02.939Z,98.2
2019-03-21T09:49:03.778Z,99.1
2019-03-21T09:50:02.909Z,98.7
2019-03-21T09:51:03.874Z,99.6
2019-03-21T09:52:02.825Z,98
2019-03-21T09:53:03.112Z,98.9
2019-03-21T09:54:10.257Z,98
2019-03-21T09:55:03.159Z,99.6
2019-03-21T09:56:03.969Z,97
2019-03-21T09:57:02.864Z,97.5
2019-03-21T09:58:03.760Z,97.5
2019-03-21T09:59:03.717Z,97.5
2019-03-21T10:00:03.894Z,96.6
2019-03-21T10:01:03.837Z,97.3
2019-03-21T10:02:03.751Z,96.8
2019-03-21T10:03:03.727Z,97
2019-03-21T10:04:03.506Z,98.2
2019-03-21T10:05:03.509Z,97.5
2019-03-21T10:06:03.618Z,95.9
2019-03-21T10:07:03.384Z,98.9
2019-03-21T10:08:03.387Z,98.2
2019-03-21T10:09:03.189Z,98.2
2019-03-21T10:10:03.703Z,97
2019-03-21T10:11:03.082Z,97.5
2019-03-21T10:12:03.633Z,98.4
2019-03-21T10:13:03.315Z,97.3
2019-03-21T10:14:03.597Z,96.3
2019-03-21T10:15:03.236Z,97.3
2019-03-21T10:16:03.232Z,96.1
2019-03-21T10:17:03.188Z,95.4
2019-03-21T10:18:03.602Z,97.7
2019-03-21T10:19:03.489Z,96.3
2019-03-21T10:20:03.067Z,95.2
2019-03-21T10:21:03.370Z,97.5
2019-03-21T10:22:03.194Z,96.8
2019-03-21T10:23:02.946Z,95.9
2019-03-21T10:24:02.774Z,98.7
2019-03-21T10:25:03.471Z,96.8
2019-03-21T10:26:03.154Z,96.3
2019-03-21T10:27:02.935Z,96.6
2019-03-21T10:28:03.110Z,98
2019-03-21T10:29:03.155Z,96.8
2019-03-21T10:30:03.187Z,97.3
2019-03-21T10:31:03.138Z,98.9
2019-03-21T10:32:14.979Z,98.7
2019-03-21T10:33:02.804Z,99.6
2019-03-21T10:34:03.797Z,98.4
2019-03-21T10:35:03.902Z,100.1
2019-03-21T10:36:03.104Z,98.4
2019-03-21T10:37:02.851Z,98.9
2019-03-21T10:38:03.010Z,97
2019-03-21T10:39:02.954Z,96.6
2019-03-21T10:40:04.058Z,97.3
2019-03-21T10:41:04.048Z,96.8
2019-03-21T10:42:03.908Z,99.1
2019-03-21T10:43:03.840Z,97
2019-03-21T10:44:02.945Z,96.6
2019-03-21T10:45:04.056Z,96.8
2019-03-21T10:46:03.898Z,98
2019-03-21T10:47:03.654Z,95.6
2019-03-21T10:48:03.526Z,95.9
2019-03-21T10:49:03.578Z,95.2
2019-03-21T10:50:03.650Z,95.2
2019-03-21T10:51:03.608Z,96.6
2019-03-21T10:52:03.621Z,94.7
2019-03-21T10:53:03.435Z,95.9
2019-03-21T10:54:03.589Z,94.7
2019-03-21T10:55:03.823Z,95.9
2019-03-21T10:56:03.132Z,94.5
2019-03-21T10:57:03.358Z,94.9
2019-03-21T10:58:03.502Z,95.4
2019-03-21T10:59:03.272Z,94
2019-03-21T11:00:03.374Z,93.8
2019-03-21T11:01:03.409Z,92.4
2019-03-21T11:02:07.956Z,91.2
2019-03-21T11:03:03.237Z,91.7
2019-03-21T11:04:03.366Z,92.4
2019-03-21T11:05:03.244Z,91.4
2019-03-21T11:06:03.303Z,90.3
2019-03-21T11:07:03.214Z,90.7
2019-03-21T11:08:03.317Z,92.6
2019-03-21T11:09:02.947Z,90.5
2019-03-21T11:10:03.723Z,90.5
2019-03-21T11:11:03.098Z,91.4
2019-03-21T11:12:03.439Z,92.8
2019-03-21T11:13:03.485Z,90.7
2019-03-21T11:14:03.042Z,92.8
2019-03-21T11:15:03.207Z,93.1
2019-03-21T11:16:03.208Z,92.6
2019-03-21T11:17:03.214Z,93.1
2019-03-21T11:18:03.073Z,95.9
2019-03-21T11:19:03.004Z,94.2
2019-03-21T11:20:03.156Z,94
2019-03-21T11:21:03.869Z,94
2019-03-21T11:22:07.014Z,94.5
2019-03-21T11:23:03.257Z,94
2019-03-21T11:24:03.972Z,94.5
2019-03-21T11:25:03.333Z,94.7
2019-03-21T11:26:03.141Z,93.1
2019-03-21T11:27:03.070Z,93.3
2019-03-21T11:28:03.009Z,93.8
2019-03-21T11:29:03.490Z,93.8
2019-03-21T11:30:02.952Z,93.3
2019-03-21T11:31:03.779Z,94.2
2019-03-21T11:32:04.192Z,93.8
2019-03-21T11:33:03.759Z,92.8
2019-03-21T11:34:02.933Z,91.7
2019-03-21T11:35:03.858Z,92.4
2019-03-21T11:36:03.860Z,92.6
2019-03-21T11:37:03.852Z,93.5
2019-03-21T11:38:03.054Z,95.2
2019-03-21T11:39:03.934Z,94.7
2019-03-21T11:40:03.224Z,93.3
2019-03-21T11:41:03.441Z,93.8
2019-03-21T11:42:03.801Z,93.5
2019-03-21T11:43:03.344Z,93.3
2019-03-21T11:44:03.572Z,92.1
2019-03-21T11:45:03.215Z,92.8
2019-03-21T11:46:03.035Z,96.1
2019-03-21T11:47:03.476Z,95.9
2019-03-21T11:48:03.430Z,95.9
2019-03-21T11:49:03.918Z,97.5
2019-03-21T11:50:03.971Z,97
2019-03-21T11:51:03.660Z,97
2019-03-21T11:52:03.323Z,97.5
2019-03-21T11:53:03.338Z,98.7
2019-03-21T11:54:03.099Z,97.5
2019-03-21T11:55:03.638Z,98.9
2019-03-21T11:56:03.568Z,99.1
2019-03-21T11:57:02.895Z,97.7
2019-03-21T11:58:03.494Z,99.8
2019-03-21T11:59:03.329Z,101.2
2019-03-21T12:00:03.324Z,100.8
2019-03-21T12:01:03.226Z,101.7
2019-03-21T12:02:04.054Z,101.7
2019-03-21T12:03:04.670Z,102.2
2019-03-21T12:04:03.386Z,102.6
2019-03-21T12:05:03.113Z,102.4
2019-03-21T12:06:03.109Z,102.6
2019-03-21T12:07:03.637Z,103.6
2019-03-21T12:08:02.930Z,103.6
2019-03-21T12:09:03.561Z,102.4
2019-03-21T12:10:03.123Z,101
2019-03-21T12:11:03.165Z,102.9
2019-03-21T12:12:03.105Z,101.7
2019-03-21T12:13:03.904Z,101.9
2019-03-21T12:14:03.179Z,101.2
2019-03-21T12:15:03.447Z,99.6
2019-03-21T12:16:03.492Z,99.6
2019-03-21T12:17:03.329Z,100.3
2019-03-21T12:18:03.436Z,99.1
2019-03-21T12:19:03.443Z,98.9
2019-03-21T12:20:03.802Z,98.7
2019-03-21T12:21:03.071Z,98.2
2019-03-21T12:22:03.367Z,96.8
2019-03-21T12:23:03.439Z,97.3
2019-03-21T12:24:03.112Z,97.3
2019-03-21T12:25:02.763Z,97.7
2019-03-21T12:26:03.647Z,98.2
2019-03-21T12:27:03.741Z,98.2
2019-03-21T12:28:03.994Z,97.3
2019-03-21T12:29:03.811Z,96.1
2019-03-21T12:30:03.096Z,95.4
2019-03-21T12:31:02.977Z,95.2
2019-03-21T12:32:04.416Z,96.6
2019-03-21T12:33:03.087Z,94
2019-03-21T12:34:03.826Z,95.2
2019-03-21T12:35:03.065Z,94
2019-03-21T12:36:03.553Z,92.1
2019-03-21T12:37:03.986Z,94.5
2019-03-21T12:38:03.761Z,92.6
2019-03-21T12:39:03.863Z,93.3
2019-03-21T12:40:03.883Z,91.9
2019-03-21T12:41:02.968Z,92.6
2019-03-21T12:42:03.779Z,92.4
2019-03-21T12:43:03.797Z,93.1
2019-03-21T12:44:03.477Z,91.2
2019-03-21T12:45:03.478Z,92.1
2019-03-21T12:46:03.548Z,91.4
2019-03-21T12:47:03.501Z,91
2019-03-21T12:48:03.553Z,90
2019-03-21T12:49:03.615Z,91
2019-03-21T12:50:03.533Z,89.3
2019-03-21T12:51:03.258Z,89.3
2019-03-21T12:52:03.310Z,87.5
2019-03-21T12:53:03.316Z,88.6
2019-03-21T12:54:03.615Z,87.7
2019-03-21T12:55:03.426Z,87.7
2019-03-21T12:56:03.753Z,88.2
2019-03-21T12:57:03.747Z,88.4
2019-03-21T12:58:03.324Z,89.1
2019-03-21T12:59:03.441Z,88.6
2019-03-21T13:00:03.610Z,88.6
2019-03-21T13:01:03.563Z,88.6
2019-03-21T13:02:03.441Z,88.9
2019-03-21T13:03:03.439Z,87.7
2019-03-21T13:04:03.400Z,88.2
2019-03-21T13:05:03.236Z,88.9
2019-03-21T13:06:03.463Z,89.6
2019-03-21T13:07:03.241Z,89.6
2019-03-21T13:08:03.394Z,89.1
2019-03-21T13:09:03.689Z,89.6
2019-03-21T13:10:03.680Z,89.3
2019-03-21T13:11:03.197Z,90.3
2019-03-21T13:12:03.259Z,89.8
2019-03-21T13:13:03.247Z,90
2019-03-21T13:14:03.177Z,90.3
2019-03-21T13:15:03.025Z,89.8
2019-03-21T13:16:03.186Z,90.5
2019-03-21T13:17:03.389Z,91.7
2019-03-21T13:18:03.380Z,90
2019-03-21T13:19:03.290Z,89.3
2019-03-21T13:20:03.460Z,90.5
2019-03-21T13:21:03.385Z,89.6
2019-03-21T13:22:03.142Z,89.8
2019-03-21T13:23:03.077Z,90.3